createdAt,value
2022-10-17T00:01:06.470Z,13.91
2022-10-17T00:03:37.446Z,13.94
2022-10-17T00:06:14.329Z,13.96
2022-10-17T00:08:44.044Z,13.99
2022-10-17T00:11:24.162Z,14.02
2022-10-17T00:13:56.096Z,14.05
2022-10-17T00:16:37.394Z,14.06
2022-10-17T00:19:07.546Z,14.06
2022-10-17T00:21:35.055Z,14.08
2022-10-17T00:24:02.770Z,14.09
2022-10-17T00:26:30.024Z,14.08
2022-10-17T00:28:57.538Z,14.07
2022-10-17T00:31:25.476Z,14.08
2022-10-17T00:33:53.454Z,14.08
2022-10-17T00:36:27.973Z,14.07
2022-10-17T00:38:59.740Z,14.07
2022-10-17T00:41:33.680Z,14.07
2022-10-17T00:44:30.590Z,14.06
2022-10-17T00:47:03.763Z,14.06
2022-10-17T00:49:36.698Z,14.08
2022-10-17T00:52:30.747Z,14.11
2022-10-17T00:55:36.884Z,14.06
2022-10-17T00:58:06.739Z,14.05
2022-10-17T01:00:34.325Z,14.02
2022-10-17T01:03:01.697Z,14.04
2022-10-17T01:05:30.134Z,14.06
2022-10-17T01:07:57.761Z,14.02
2022-10-17T01:10:40.626Z,13.98
2022-10-17T01:13:42.522Z,13.98
2022-10-17T01:17:06.102Z,13.97
2022-10-17T01:20:12.649Z,13.98
2022-10-17T01:23:21.101Z,13.98
2022-10-17T01:26:37.457Z,13.98
2022-10-17T01:30:16.622Z,13.98
2022-10-17T01:33:12.825Z,13.95
2022-10-17T01:36:46.519Z,13.95
2022-10-17T01:39:43.911Z,13.96
2022-10-17T01:42:37.695Z,13.94
2022-10-17T01:45:40.584Z,14.02
2022-10-17T01:48:18.745Z,14.03
2022-10-17T01:51:06.480Z,14.02
2022-10-17T01:53:55.366Z,14.04
2022-10-17T01:56:28.434Z,14.07
2022-10-17T01:59:13.096Z,14.05
2022-10-17T02:01:44.980Z,14.07
2022-10-17T02:04:12.512Z,14.09
2022-10-17T02:06:39.770Z,14.10
2022-10-17T02:09:27.274Z,14.11
2022-10-17T02:12:23.670Z,14.13
2022-10-17T02:15:16.958Z,14.15
2022-10-17T02:18:20.390Z,14.16
2022-10-17T02:20:54.878Z,14.18
2022-10-17T02:24:01.205Z,14.19
2022-10-17T02:26:55.452Z,14.21
2022-10-17T02:29:38.420Z,14.22
2022-10-17T02:32:31.336Z,14.22
2022-10-17T02:35:03.810Z,14.23
2022-10-17T02:37:33.758Z,14.23
2022-10-17T02:40:04.546Z,14.25
2022-10-17T02:42:33.818Z,14.24
2022-10-17T02:45:03.445Z,14.24
2022-10-17T02:47:50.871Z,14.21
2022-10-17T02:50:26.576Z,14.24
2022-10-17T02:53:08.558Z,14.22
2022-10-17T02:55:58.482Z,14.23
2022-10-17T02:58:33.807Z,14.24
2022-10-17T03:01:02.095Z,14.24
2022-10-17T03:03:32.809Z,14.25
2022-10-17T03:06:02.276Z,14.24
2022-10-17T03:08:29.597Z,14.26
2022-10-17T03:10:57.286Z,14.25
2022-10-17T03:13:26.416Z,14.27
2022-10-17T03:15:53.577Z,14.29
2022-10-17T03:18:20.751Z,14.30
2022-10-17T03:20:49.793Z,14.31
2022-10-17T03:23:17.141Z,14.31
2022-10-17T03:25:45.493Z,14.32
2022-10-17T03:28:14.584Z,14.33
2022-10-17T03:30:41.830Z,14.34
2022-10-17T03:33:09.317Z,14.35
2022-10-17T03:35:40.496Z,14.36
2022-10-17T03:38:08.471Z,14.39
2022-10-17T03:40:35.723Z,14.41
2022-10-17T03:43:04.754Z,14.43
2022-10-17T03:45:32.841Z,14.44
2022-10-17T03:48:00.477Z,14.46
2022-10-17T03:50:27.803Z,14.47
2022-10-17T03:52:56.084Z,14.49
2022-10-17T03:55:24.394Z,14.50
2022-10-17T03:57:51.704Z,14.51
2022-10-17T04:00:21.151Z,14.52
2022-10-17T04:02:55.079Z,14.53
2022-10-17T04:05:22.241Z,14.53
2022-10-17T04:07:49.605Z,14.53
2022-10-17T04:10:19.480Z,14.55
2022-10-17T04:12:50.288Z,14.55
2022-10-17T04:15:18.601Z,14.56
2022-10-17T04:17:48.495Z,14.57
2022-10-17T04:20:17.062Z,14.58
2022-10-17T04:22:44.564Z,14.62
2022-10-17T04:25:13.019Z,14.64
2022-10-17T04:27:43.663Z,14.68
2022-10-17T04:30:11.568Z,14.72
2022-10-17T04:32:39.396Z,14.75
2022-10-17T04:35:24.554Z,14.80
2022-10-17T04:38:01.875Z,14.87
2022-10-17T04:40:29.419Z,14.93
2022-10-17T04:42:57.027Z,14.96
2022-10-17T04:45:31.886Z,15.01
2022-10-17T04:48:03.224Z,15.08
2022-10-17T04:50:30.421Z,15.12
2022-10-17T04:53:34.456Z,15.16
2022-10-17T04:56:07.181Z,15.17
2022-10-17T04:58:34.460Z,15.21
2022-10-17T05:01:10.263Z,15.25
2022-10-17T05:03:39.389Z,15.25
2022-10-17T05:06:15.745Z,15.28
2022-10-17T05:08:48.221Z,15.27
2022-10-17T05:11:28.976Z,15.28
2022-10-17T05:14:02.548Z,15.28
2022-10-17T05:16:31.911Z,15.29
2022-10-17T05:18:59.996Z,15.28
2022-10-17T05:24:00.592Z,15.30
2022-10-17T05:26:29.144Z,15.31
2022-10-17T05:28:56.828Z,15.32
2022-10-17T05:31:25.832Z,15.31
2022-10-17T05:33:53.090Z,15.30
2022-10-17T05:36:22.792Z,15.30
2022-10-17T05:38:52.077Z,15.28
2022-10-17T05:41:21.215Z,15.28
2022-10-17T05:43:50.261Z,15.28
2022-10-17T05:46:21.842Z,15.28
2022-10-17T05:48:49.089Z,15.28
2022-10-17T05:51:17.089Z,15.29
2022-10-17T05:53:44.415Z,15.29
2022-10-17T05:56:17.256Z,15.30
2022-10-17T05:58:50.323Z,15.31
2022-10-17T06:01:39.217Z,15.33
2022-10-17T06:04:06.412Z,15.32
2022-10-17T06:06:36.018Z,15.32
2022-10-17T06:09:04.758Z,15.37
2022-10-17T06:11:37.245Z,15.38
2022-10-17T06:14:05.941Z,15.39
2022-10-17T06:16:33.217Z,15.40
2022-10-17T06:19:00.416Z,15.41
2022-10-17T06:21:28.762Z,15.40
2022-10-17T06:24:06.290Z,15.41
2022-10-17T06:26:36.406Z,15.42
2022-10-17T06:29:06.313Z,15.45
2022-10-17T06:31:37.560Z,15.44
2022-10-17T06:34:04.732Z,15.44
2022-10-17T06:36:31.990Z,15.46
2022-10-17T06:38:59.733Z,15.47
2022-10-17T06:41:59.274Z,15.49
2022-10-17T06:44:44.189Z,15.51
2022-10-17T06:47:23.354Z,15.52
2022-10-17T06:49:53.041Z,15.54
2022-10-17T06:52:39.631Z,15.57
2022-10-17T06:55:26.268Z,15.62
2022-10-17T06:58:13.999Z,15.66
2022-10-17T07:00:45.328Z,15.70
2022-10-17T07:03:13.475Z,15.73
2022-10-17T07:05:41.057Z,15.77
2022-10-17T07:08:08.757Z,15.82
2022-10-17T07:10:38.737Z,15.87
2022-10-17T07:13:07.901Z,15.92
2022-10-17T07:15:38.037Z,15.97
2022-10-17T07:18:06.645Z,16.03
2022-10-17T07:20:34.337Z,16.06
2022-10-17T07:23:02.101Z,16.08
2022-10-17T07:25:30.245Z,16.10
2022-10-17T07:28:02.172Z,16.12
2022-10-17T07:30:29.639Z,16.20
2022-10-17T07:33:04.647Z,16.24
2022-10-17T07:35:32.082Z,16.27
2022-10-17T07:37:59.343Z,16.28
2022-10-17T07:40:27.357Z,16.30
2022-10-17T07:42:56.368Z,16.33
2022-10-17T07:45:27.620Z,16.38
2022-10-17T07:47:58.442Z,16.36
2022-10-17T07:50:26.143Z,16.36
2022-10-17T07:52:53.479Z,16.37
2022-10-17T07:55:20.932Z,16.36
2022-10-17T07:57:50.714Z,16.34
2022-10-17T08:00:18.774Z,16.31
2022-10-17T08:02:46.002Z,16.23
2022-10-17T08:05:13.279Z,16.13
2022-10-17T08:07:41.668Z,16.07
2022-10-17T08:10:12.412Z,16.05
2022-10-17T08:12:39.876Z,16.03
2022-10-17T08:15:10.092Z,16.00
2022-10-17T08:17:39.324Z,15.98
2022-10-17T08:20:07.925Z,15.98
2022-10-17T08:22:35.477Z,15.97
2022-10-17T08:25:02.704Z,15.96
2022-10-17T08:27:34.649Z,15.97
2022-10-17T08:30:02.266Z,15.96
2022-10-17T08:32:30.440Z,15.94
2022-10-17T08:34:57.888Z,15.92
2022-10-17T08:37:25.261Z,15.89
2022-10-17T08:39:55.298Z,15.86
2022-10-17T08:42:53.607Z,15.84
2022-10-17T08:45:44.659Z,15.82
2022-10-17T08:48:22.820Z,15.79
2022-10-17T08:51:09.544Z,15.77
2022-10-17T08:54:02.293Z,15.75
2022-10-17T08:56:49.036Z,15.72
2022-10-17T08:59:30.077Z,15.71
2022-10-17T09:02:41.581Z,15.68
2022-10-17T09:05:50.525Z,15.66
2022-10-17T09:08:46.897Z,15.67
2022-10-17T09:12:20.114Z,15.67
2022-10-17T09:15:17.837Z,15.66
2022-10-17T09:18:21.109Z,15.66
2022-10-17T09:21:19.602Z,15.65
2022-10-17T09:24:09.075Z,15.65
2022-10-17T09:26:40.920Z,15.64
2022-10-17T09:29:32.403Z,15.64
2022-10-17T09:32:19.445Z,15.64
2022-10-17T09:34:46.673Z,15.64
2022-10-17T09:37:20.393Z,15.62
2022-10-17T09:39:48.010Z,15.65
2022-10-17T09:42:23.894Z,15.65
2022-10-17T09:45:14.176Z,15.70
2022-10-17T09:48:01.013Z,15.72
2022-10-17T09:50:34.919Z,15.76
2022-10-17T09:53:24.337Z,15.78
2022-10-17T09:56:01.260Z,15.81
2022-10-17T09:58:54.484Z,15.80
2022-10-17T10:01:30.914Z,15.79
2022-10-17T10:04:20.306Z,15.76
2022-10-17T10:07:12.349Z,15.78
2022-10-17T10:09:40.359Z,15.82
2022-10-17T10:12:31.498Z,15.86
2022-10-17T10:14:59.940Z,15.88
2022-10-17T10:17:34.737Z,15.92
2022-10-17T10:20:25.537Z,15.93
2022-10-17T10:23:13.943Z,15.96
2022-10-17T10:26:32.118Z,15.98
2022-10-17T10:29:06.600Z,15.97
2022-10-17T10:31:40.329Z,15.97
2022-10-17T10:34:31.318Z,16.00
2022-10-17T10:37:20.235Z,16.03
2022-10-17T10:40:25.429Z,16.05
2022-10-17T10:43:04.017Z,16.08
2022-10-17T10:45:53.597Z,16.09
2022-10-17T10:49:02.090Z,16.11
2022-10-17T10:51:42.413Z,16.12
2022-10-17T10:54:28.766Z,16.12
2022-10-17T10:57:07.306Z,16.11
2022-10-17T11:00:04.948Z,16.10
2022-10-17T11:03:12.829Z,16.11
2022-10-17T11:06:11.265Z,16.08
2022-10-17T11:09:21.787Z,16.06
2022-10-17T11:12:35.226Z,16.03
2022-10-17T11:15:41.086Z,16.00
2022-10-17T11:18:23.377Z,16.00
2022-10-17T11:21:24.239Z,15.99
2022-10-17T11:24:14.353Z,15.98
2022-10-17T11:27:05.840Z,15.99
2022-10-17T11:29:38.943Z,16.00
2022-10-17T11:32:44.586Z,16.00
2022-10-17T11:35:38.127Z,15.98
2022-10-17T11:39:03.769Z,15.98
2022-10-17T11:41:44.076Z,16.00
2022-10-17T11:44:39.912Z,16.03
2022-10-17T11:47:31.275Z,16.05
2022-10-17T11:53:26.474Z,16.11
2022-10-17T11:55:58.293Z,16.16
2022-10-17T11:58:53.432Z,16.16
2022-10-17T12:01:58.481Z,16.21
2022-10-17T12:04:49.693Z,16.23
2022-10-17T12:08:18.024Z,16.24
2022-10-17T12:11:14.995Z,16.26
2022-10-17T12:13:56.365Z,16.26
2022-10-17T12:16:23.659Z,16.27
2022-10-17T12:19:10.922Z,16.28
2022-10-17T12:22:04.830Z,16.30
2022-10-17T12:24:51.311Z,16.30
2022-10-17T12:27:45.942Z,16.31
2022-10-17T12:30:13.553Z,16.36
2022-10-17T12:33:21.856Z,16.38
2022-10-17T12:36:11.923Z,16.39
2022-10-17T12:38:40.372Z,16.42
2022-10-17T12:41:07.661Z,16.44
2022-10-17T12:43:48.555Z,16.45
2022-10-17T12:46:51.875Z,16.47
2022-10-17T12:49:40.454Z,16.49
2022-10-17T12:52:35.077Z,16.51
2022-10-17T12:55:13.150Z,16.54
2022-10-17T12:58:03.177Z,16.58
2022-10-17T13:00:37.677Z,16.62
2022-10-17T13:03:26.130Z,16.63
2022-10-17T13:06:00.389Z,16.64
2022-10-17T13:08:43.038Z,16.64
2022-10-17T13:11:13.643Z,16.63
2022-10-17T13:13:54.109Z,16.64
2022-10-17T13:17:00.152Z,16.67
2022-10-17T13:19:45.546Z,16.66
2022-10-17T13:22:33.040Z,16.65
2022-10-17T13:25:19.231Z,16.61
2022-10-17T13:27:48.904Z,16.60
2022-10-17T13:30:49.281Z,16.58
2022-10-17T13:33:35.797Z,16.56
2022-10-17T13:36:13.593Z,16.56
2022-10-17T13:38:42.656Z,16.55
2022-10-17T13:41:34.728Z,16.55
2022-10-17T13:44:32.098Z,16.55
2022-10-17T13:46:59.782Z,16.53
2022-10-17T13:49:43.045Z,16.52
2022-10-17T13:52:25.418Z,16.52
2022-10-17T13:54:54.239Z,16.51
2022-10-17T13:57:31.407Z,16.54
2022-10-17T14:00:23.053Z,16.54
2022-10-17T14:02:50.317Z,16.54
2022-10-17T14:05:23.225Z,16.55
2022-10-17T14:08:12.428Z,16.54
2022-10-17T14:10:44.352Z,16.49
2022-10-17T14:13:35.963Z,16.51
2022-10-17T14:16:04.602Z,16.48
2022-10-17T14:18:37.017Z,16.49
2022-10-17T14:24:19.833Z,16.47
2022-10-17T14:26:58.812Z,16.47
2022-10-17T14:29:49.957Z,16.49
2022-10-17T14:32:19.945Z,16.54
2022-10-17T14:35:01.434Z,16.58
2022-10-17T14:37:51.831Z,16.61
2022-10-17T14:40:27.366Z,16.62
2022-10-17T14:42:58.156Z,16.63
2022-10-17T14:45:33.202Z,16.62
2022-10-17T14:48:25.275Z,16.63
2022-10-17T14:51:17.841Z,16.64
2022-10-17T14:54:27.020Z,16.65
2022-10-17T14:56:55.715Z,16.65
2022-10-17T14:59:52.290Z,16.66
2022-10-17T15:02:13.539Z,16.66
2022-10-17T15:04:41.879Z,16.67
2022-10-17T15:07:16.920Z,16.66
2022-10-17T15:09:49.833Z,16.66
2022-10-17T15:12:22.616Z,16.69
2022-10-17T15:14:51.621Z,16.70
2022-10-17T15:17:27.203Z,16.73
2022-10-17T15:19:55.191Z,16.71
2022-10-17T15:22:23.847Z,16.71
2022-10-17T15:24:51.080Z,16.72
2022-10-17T15:27:27.753Z,16.75
2022-10-17T15:29:55.042Z,16.75
2022-10-17T15:32:22.275Z,16.77
2022-10-17T15:34:49.491Z,16.78
2022-10-17T15:37:23.508Z,16.81
2022-10-17T15:39:55.221Z,16.80
2022-10-17T15:42:31.548Z,16.79
2022-10-17T15:44:59.209Z,16.78
2022-10-17T15:47:33.994Z,16.78
2022-10-17T15:50:02.442Z,16.75
2022-10-17T15:52:29.781Z,16.74
2022-10-17T15:54:59.592Z,16.72
2022-10-17T15:57:36.222Z,16.70
2022-10-17T16:00:07.688Z,16.67
2022-10-17T16:02:36.610Z,16.65
2022-10-17T16:05:23.479Z,16.61
2022-10-17T16:07:51.594Z,16.58
2022-10-17T16:10:22.358Z,16.58
2022-10-17T16:12:50.398Z,16.55
2022-10-17T16:15:27.972Z,16.53
2022-10-17T16:18:00.472Z,16.49
2022-10-17T16:20:30.373Z,16.48
2022-10-17T16:23:00.537Z,16.47
2022-10-17T16:25:30.931Z,16.44
2022-10-17T16:28:00.685Z,16.42
2022-10-17T16:30:31.812Z,16.39
2022-10-17T16:32:59.391Z,16.37
2022-10-17T16:35:33.402Z,16.32
2022-10-17T16:38:06.923Z,16.31
2022-10-17T16:40:37.768Z,16.31
2022-10-17T16:43:05.252Z,16.28
2022-10-17T16:45:32.640Z,16.29
2022-10-17T16:48:01.084Z,16.27
2022-10-17T16:50:31.212Z,16.26
2022-10-17T16:52:59.104Z,16.25
2022-10-17T16:55:26.366Z,16.23
2022-10-17T16:57:53.583Z,16.22
2022-10-17T17:00:21.013Z,16.22
2022-10-17T17:02:49.311Z,16.21
2022-10-17T17:05:16.604Z,16.19
2022-10-17T17:07:43.948Z,16.17
2022-10-17T17:10:11.163Z,16.15
2022-10-17T17:12:38.419Z,16.15
2022-10-17T17:15:06.611Z,16.14
2022-10-17T17:17:55.222Z,16.12
2022-10-17T17:20:22.775Z,16.09
2022-10-17T17:22:51.912Z,16.08
2022-10-17T17:25:19.201Z,16.08
2022-10-17T17:27:49.114Z,16.08
2022-10-17T17:30:16.752Z,16.06
2022-10-17T17:32:44.011Z,16.07
2022-10-17T17:35:11.334Z,16.06
2022-10-17T17:37:38.552Z,16.03
2022-10-17T17:40:06.981Z,16.03
2022-10-17T17:42:34.164Z,16.00
2022-10-17T17:45:01.336Z,16.00
2022-10-17T17:47:31.753Z,15.99
2022-10-17T17:49:59.299Z,15.99
2022-10-17T17:52:26.673Z,15.98
2022-10-17T17:54:54.184Z,15.95
2022-10-17T17:57:22.098Z,15.94
2022-10-17T17:59:50.123Z,15.93
2022-10-17T18:02:17.438Z,15.91
2022-10-17T18:04:44.717Z,15.89
2022-10-17T18:07:11.971Z,15.87
2022-10-17T18:09:39.244Z,15.85
2022-10-17T18:12:06.490Z,15.85
2022-10-17T18:14:33.668Z,15.83
2022-10-17T18:17:00.839Z,15.81
2022-10-17T18:19:29.072Z,15.80
2022-10-17T18:21:56.239Z,15.78
2022-10-17T18:24:23.581Z,15.75
2022-10-17T18:26:52.199Z,15.73
2022-10-17T18:29:19.764Z,15.74
2022-10-17T18:31:47.144Z,15.72
2022-10-17T18:34:14.334Z,15.71
2022-10-17T18:36:41.587Z,15.69
2022-10-17T18:39:08.832Z,15.67
2022-10-17T18:41:36.243Z,15.65
2022-10-17T18:44:04.029Z,15.63
2022-10-17T18:46:40.628Z,15.61
2022-10-17T18:49:15.662Z,15.60
2022-10-17T18:51:43.353Z,15.58
2022-10-17T18:54:21.560Z,15.58
2022-10-17T18:56:55.254Z,15.56
2022-10-17T18:59:23.613Z,15.57
2022-10-17T19:01:50.910Z,15.56
2022-10-17T19:04:20.489Z,15.55
2022-10-17T19:06:47.979Z,15.53
2022-10-17T19:09:19.199Z,15.54
2022-10-17T19:11:46.693Z,15.53
2022-10-17T19:14:14.494Z,15.54
2022-10-17T19:16:49.260Z,15.53
2022-10-17T19:19:25.415Z,15.53
2022-10-17T19:21:53.637Z,15.53
2022-10-17T19:24:25.717Z,15.54
2022-10-17T19:26:59.282Z,15.52
2022-10-17T19:29:33.452Z,15.52
2022-10-17T19:32:02.523Z,15.52
2022-10-17T19:34:29.866Z,15.52
2022-10-17T19:36:57.197Z,15.56
2022-10-17T19:39:26.471Z,15.57
2022-10-17T19:41:53.728Z,15.56
2022-10-17T19:44:22.470Z,15.56
2022-10-17T19:46:49.806Z,15.54
2022-10-17T19:49:17.685Z,15.55
2022-10-17T19:51:45.329Z,15.56
2022-10-17T19:54:12.832Z,15.56
2022-10-17T19:56:41.287Z,15.56
2022-10-17T19:59:13.575Z,15.57
2022-10-17T20:01:41.196Z,15.57
2022-10-17T20:04:10.922Z,15.57
2022-10-17T20:06:40.679Z,15.55
2022-10-17T20:09:13.887Z,15.56
2022-10-17T20:11:44.685Z,15.56
2022-10-17T20:14:12.016Z,15.55
2022-10-17T20:16:39.235Z,15.56
2022-10-17T20:19:12.974Z,15.56
2022-10-17T20:21:40.631Z,15.55
2022-10-17T20:24:13.392Z,15.54
2022-10-17T20:26:41.785Z,15.53
2022-10-17T20:29:20.764Z,15.53
2022-10-17T20:31:49.001Z,15.50
2022-10-17T20:34:19.618Z,15.50
2022-10-17T20:36:50.750Z,15.50
2022-10-17T20:39:21.066Z,15.49
2022-10-17T20:41:49.355Z,15.50
2022-10-17T20:44:16.630Z,15.49
2022-10-17T20:47:00.597Z,15.49
2022-10-17T20:49:30.203Z,15.48
2022-10-17T20:51:59.169Z,15.48
2022-10-17T20:54:28.505Z,15.47
2022-10-17T20:56:58.634Z,15.46
2022-10-17T20:59:28.417Z,15.47
2022-10-17T21:01:55.831Z,15.46
2022-10-17T21:07:10.373Z,15.45
2022-10-17T21:09:37.656Z,15.44
2022-10-17T21:12:05.359Z,15.43
2022-10-17T21:14:33.427Z,15.42
2022-10-17T21:17:04.665Z,15.41
2022-10-17T21:19:32.885Z,15.40
2022-10-17T21:22:00.141Z,15.39
2022-10-17T21:24:27.663Z,15.39
2022-10-17T21:26:57.830Z,15.38
2022-10-17T21:29:25.315Z,15.36
2022-10-17T21:31:53.067Z,15.34
2022-10-17T21:34:27.787Z,15.34
2022-10-17T21:36:56.043Z,15.32
2022-10-17T21:39:24.857Z,15.30
2022-10-17T21:41:53.659Z,15.31
2022-10-17T21:44:26.721Z,15.31
2022-10-17T21:46:56.081Z,15.29
2022-10-17T21:49:25.878Z,15.28
2022-10-17T21:51:54.851Z,15.27
2022-10-17T21:54:23.607Z,15.25
2022-10-17T21:56:51.923Z,15.22
2022-10-17T21:59:19.258Z,15.19
2022-10-17T22:01:47.596Z,15.16
2022-10-17T22:04:19.339Z,15.13
2022-10-17T22:06:51.323Z,15.11
2022-10-17T22:09:25.963Z,15.12
2022-10-17T22:11:56.857Z,15.12
2022-10-17T22:14:27.193Z,15.09
2022-10-17T22:16:55.400Z,15.09
2022-10-17T22:19:27.191Z,15.07
2022-10-17T22:21:55.612Z,15.07
2022-10-17T22:24:23.753Z,15.08
2022-10-17T22:26:52.231Z,15.08
2022-10-17T22:29:19.828Z,15.06
2022-10-17T22:31:50.321Z,15.03
2022-10-17T22:34:18.894Z,15.02
2022-10-17T22:36:48.736Z,14.99
2022-10-17T22:39:18.280Z,14.99
2022-10-17T22:41:45.475Z,14.99
2022-10-17T22:44:12.808Z,14.98
2022-10-17T22:46:39.929Z,14.99
2022-10-17T22:49:07.102Z,14.99
2022-10-17T22:51:34.303Z,15.00
2022-10-17T22:54:01.585Z,15.01
2022-10-17T22:56:28.754Z,15.01
2022-10-17T22:58:55.942Z,15.02
2022-10-17T23:01:25.703Z,15.00
2022-10-17T23:03:53.638Z,14.99
2022-10-17T23:06:21.958Z,14.98
2022-10-17T23:08:49.787Z,14.97
2022-10-17T23:11:18.236Z,14.96
2022-10-17T23:13:45.465Z,14.96
2022-10-17T23:16:12.764Z,14.96
2022-10-17T23:18:40.338Z,14.97
2022-10-17T23:21:08.350Z,14.98
2022-10-17T23:23:36.861Z,14.98
2022-10-17T23:26:14.323Z,14.98
2022-10-17T23:28:43.244Z,14.98
2022-10-17T23:31:20.795Z,14.97
2022-10-17T23:33:50.208Z,14.94
2022-10-17T23:36:20.923Z,14.93
2022-10-17T23:38:49.074Z,14.94
2022-10-17T23:41:17.609Z,14.96
2022-10-17T23:43:45.190Z,14.97
2022-10-17T23:46:12.845Z,14.97
2022-10-17T23:48:41.729Z,14.98
2022-10-17T23:51:10.763Z,14.98
2022-10-17T23:53:39.581Z,14.97
2022-10-17T23:56:09.108Z,14.96
2022-10-17T23:58:37.868Z,14.96
